createdAt,value
2023-06-17T18:06:15.497Z,4.30
2023-06-17T18:08:44.468Z,4.25
2023-06-17T18:11:15.640Z,4.60
2023-06-17T18:13:44.462Z,4.53
2023-06-17T18:16:12.440Z,4.30
2023-06-17T18:18:40.466Z,4.40
2023-06-17T18:21:10.856Z,4.15
2023-06-17T18:23:40.244Z,4.50
2023-06-17T18:26:11.071Z,4.57
2023-06-17T18:28:39.321Z,4.55
2023-06-17T18:31:07.568Z,4.55
2023-06-17T18:33:35.572Z,4.50
2023-06-17T18:36:03.832Z,4.80
2023-06-17T18:38:31.862Z,4.55
2023-06-17T18:41:01.327Z,4.45
2023-06-17T18:43:29.420Z,4.68
2023-06-17T18:45:57.491Z,4.80
2023-06-17T18:48:25.530Z,4.70
2023-06-17T18:50:53.544Z,4.70
2023-06-17T18:53:21.544Z,5.18
2023-06-17T18:55:50.259Z,5.03
2023-06-17T18:58:20.262Z,4.95
2023-06-17T19:00:48.488Z,4.80
2023-06-17T19:03:17.454Z,4.90
2023-06-17T19:05:46.719Z,4.97
2023-06-17T19:08:15.536Z,5.10
2023-06-17T19:10:43.809Z,4.68
2023-06-17T19:13:12.956Z,4.95
2023-06-17T19:15:42.735Z,5.10
2023-06-17T19:18:10.981Z,4.63
2023-06-17T19:20:40.038Z,4.90
2023-06-17T19:23:08.000Z,5.20
2023-06-17T19:25:36.065Z,4.28
2023-06-17T19:28:08.635Z,5.00
2023-06-17T19:30:40.918Z,5.10
2023-06-17T19:33:10.926Z,5.50
2023-06-17T19:35:38.932Z,5.57
2023-06-17T19:38:07.581Z,5.07
2023-06-17T19:40:36.006Z,5.47
2023-06-17T19:43:05.145Z,6.15
2023-06-17T19:45:34.316Z,5.78
2023-06-17T19:48:04.281Z,5.40
2023-06-17T19:50:35.013Z,5.80
2023-06-17T19:53:03.997Z,5.15
2023-06-17T19:55:32.693Z,5.90
2023-06-17T19:58:01.075Z,5.33
2023-06-17T20:00:29.918Z,5.60
2023-06-17T20:02:58.602Z,5.63
2023-06-17T20:05:26.716Z,5.60
2023-06-17T20:07:56.142Z,5.95
2023-06-17T20:10:24.693Z,5.85
2023-06-17T20:12:58.507Z,5.88
2023-06-17T20:15:27.750Z,5.82
2023-06-17T20:17:56.135Z,5.63
2023-06-17T20:20:24.570Z,5.95
2023-06-17T20:22:53.288Z,6.95
2023-06-17T20:25:25.542Z,5.85
2023-06-17T20:27:56.366Z,5.95
2023-06-17T20:30:24.720Z,5.22
2023-06-17T20:32:53.300Z,5.70
2023-06-17T20:35:21.757Z,5.90
2023-06-17T20:37:49.744Z,6.35
2023-06-17T20:40:17.842Z,6.07
2023-06-17T20:42:48.221Z,6.03
2023-06-17T20:45:17.106Z,6.15
2023-06-17T20:47:45.329Z,6.35
2023-06-17T20:50:14.074Z,5.95
2023-06-17T20:52:42.101Z,5.82
2023-06-17T20:55:11.205Z,6.55
2023-06-17T20:57:39.786Z,6.00
2023-06-17T21:00:10.769Z,6.00
2023-06-17T21:02:40.041Z,5.95
2023-06-17T21:05:09.495Z,6.47
2023-06-17T21:07:37.650Z,6.20
2023-06-17T21:10:06.983Z,6.70
2023-06-17T21:12:35.534Z,6.73
2023-06-17T21:15:03.627Z,6.40
2023-06-17T21:17:33.744Z,6.53
2023-06-17T21:20:01.829Z,5.95
2023-06-17T21:22:30.634Z,6.32
2023-06-17T21:24:58.726Z,6.50
2023-06-17T21:27:27.093Z,7.03
2023-06-17T21:29:55.173Z,7.10
2023-06-17T21:32:24.632Z,6.80
2023-06-17T21:34:56.516Z,6.25
2023-06-17T21:37:27.261Z,6.40
2023-06-17T21:39:56.486Z,6.93
2023-06-17T21:42:24.734Z,6.78
2023-06-17T21:44:53.271Z,6.20
2023-06-17T21:47:21.400Z,6.30
2023-06-17T21:49:50.490Z,6.80
2023-06-17T21:52:20.230Z,7.07
2023-06-17T21:54:50.057Z,6.80
2023-06-17T21:57:18.338Z,7.28
2023-06-17T21:59:47.675Z,7.40
2023-06-17T22:02:16.003Z,7.53
2023-06-17T22:04:44.634Z,7.55
2023-06-17T22:07:13.880Z,6.72
2023-06-17T22:09:48.335Z,7.03
2023-06-17T22:12:17.179Z,7.35
2023-06-17T22:14:45.423Z,7.10
2023-06-17T22:17:13.967Z,6.65
2023-06-17T22:19:42.906Z,7.13
2023-06-17T22:22:11.108Z,7.27
2023-06-17T22:24:39.692Z,7.93
2023-06-17T22:27:13.262Z,7.30
2023-06-17T22:29:41.392Z,7.20
2023-06-17T22:32:09.689Z,7.13
2023-06-17T22:34:38.216Z,6.97
2023-06-17T22:37:06.947Z,7.25
2023-06-17T22:39:35.561Z,6.88
2023-06-17T22:42:04.194Z,7.07
2023-06-17T22:44:33.648Z,7.35
2023-06-17T22:47:01.712Z,8.35
2023-06-17T22:49:30.818Z,8.50
2023-06-17T22:51:58.753Z,7.82
2023-06-17T22:54:27.162Z,8.20
2023-06-17T22:56:55.784Z,7.95
2023-06-17T22:59:23.883Z,8.10
2023-06-17T23:01:53.317Z,8.45
2023-06-17T23:06:50.074Z,8.15
2023-06-17T23:09:18.873Z,7.57
2023-06-17T23:11:46.887Z,8.30
2023-06-17T23:14:14.921Z,8.48
2023-06-17T23:16:42.944Z,7.72
2023-06-17T23:19:14.912Z,7.60
2023-06-17T23:21:45.343Z,8.07
2023-06-17T23:24:15.612Z,9.07
2023-06-17T23:29:11.895Z,7.55
2023-06-17T23:31:40.634Z,8.65
2023-06-17T23:34:09.103Z,9.63
2023-06-17T23:36:40.397Z,8.88
2023-06-17T23:39:09.668Z,8.52
2023-06-17T23:41:37.896Z,8.77
2023-06-17T23:44:08.157Z,8.38
2023-06-17T23:46:39.607Z,9.18
2023-06-17T23:49:07.681Z,9.18
2023-06-17T23:51:35.706Z,8.90
2023-06-17T23:54:06.008Z,8.80
2023-06-17T23:59:01.941Z,8.68
